Ketron Island, Washington
Current Conditions -  °F | °C
As of 4:18 PM on Tuesday 25 Nov 2014 (Local Time) from KTCM Reporting Station
Light Rain Light Rain  
Wind Chill: 57°   Ceiling: 700
Heat Index: 57°   Visibility: 8mi
Dew Point: 57°   Wind: 12mph
Humidity: 100%   Direction: 200°SSW
Pressure: 30.21"   Gusts: NA
Location:  47.1696°N, 122.593°W
Report Text: KTCM 260018Z AUTO 20010KT 8SM -RA BKN007 OVC015 14/14 A3021 RMK AO2 RAB2356 CIG 005V008 $
Loading
Personal Weather Stations






























Interactive Weather Map New forecast layout! Learn more

10-Day Weather Forecast

Advertisements
Track Severe Weather on mobile